createdAt,value
2022-11-20T00:01:26.959Z,13.20
2022-11-20T00:03:55.619Z,14.10
2022-11-20T00:06:23.531Z,13.43
2022-11-20T00:08:51.168Z,14.68
2022-11-20T00:11:20.619Z,13.95
2022-11-20T00:13:50.771Z,14.18
2022-11-20T00:16:19.950Z,14.10
2022-11-20T00:18:46.850Z,13.80
2022-11-20T00:21:17.901Z,14.60
2022-11-20T00:23:45.024Z,14.23
2022-11-20T00:26:16.886Z,15.15
2022-11-20T00:28:45.140Z,13.85
2022-11-20T00:31:14.497Z,13.75
2022-11-20T00:33:42.028Z,13.88
2022-11-20T00:36:22.766Z,14.30
2022-11-20T00:38:53.569Z,14.85
2022-11-20T00:41:20.289Z,14.50
2022-11-20T00:43:47.116Z,15.00
2022-11-20T00:46:16.344Z,13.68
2022-11-20T00:48:43.594Z,14.25
2022-11-20T00:51:11.512Z,13.98
2022-11-20T00:53:38.230Z,13.98
2022-11-20T00:56:07.696Z,14.65
2022-11-20T00:58:36.416Z,15.70
2022-11-20T01:01:06.474Z,15.45
2022-11-20T01:03:34.627Z,15.20
2022-11-20T01:06:02.661Z,15.57
2022-11-20T01:08:34.032Z,14.80
2022-11-20T01:11:09.530Z,15.65
2022-11-20T01:13:40.059Z,14.40
2022-11-20T01:16:12.918Z,14.55
2022-11-20T01:18:41.186Z,15.57
2022-11-20T01:21:09.998Z,14.88
2022-11-20T01:23:39.348Z,15.10
2022-11-20T01:26:08.514Z,16.13
2022-11-20T01:28:35.360Z,16.30
2022-11-20T01:31:12.002Z,15.63
2022-11-20T01:33:39.791Z,15.95
2022-11-20T01:36:07.651Z,16.15
2022-11-20T01:38:35.537Z,15.18
2022-11-20T01:41:02.183Z,15.88
2022-11-20T01:43:29.451Z,15.80
2022-11-20T01:46:16.180Z,15.10
2022-11-20T01:48:52.948Z,15.32
2022-11-20T01:51:25.509Z,16.00
2022-11-20T01:53:54.977Z,16.95
2022-11-20T01:56:22.279Z,15.70
2022-11-20T01:58:54.857Z,16.85
2022-11-20T02:01:22.460Z,15.45
2022-11-20T02:03:50.504Z,16.42
2022-11-20T02:06:22.651Z,15.82
2022-11-20T02:08:49.445Z,16.67
2022-11-20T02:11:16.110Z,16.88
2022-11-20T02:13:45.987Z,17.37
2022-11-20T02:16:41.667Z,15.25
2022-11-20T02:19:16.394Z,15.88
2022-11-20T02:21:52.721Z,16.17
2022-11-20T02:24:23.106Z,16.13
2022-11-20T02:27:00.913Z,15.77
2022-11-20T02:30:01.412Z,16.38
2022-11-20T02:32:36.917Z,15.15
2022-11-20T02:35:30.931Z,16.65
2022-11-20T02:38:00.267Z,17.27
2022-11-20T02:40:27.218Z,17.08
2022-11-20T02:42:54.630Z,15.93
2022-11-20T02:45:21.758Z,16.27
2022-11-20T02:47:48.392Z,15.57
2022-11-20T02:50:15.297Z,15.93
2022-11-20T02:52:42.048Z,16.40
2022-11-20T02:55:09.039Z,17.10
2022-11-20T02:57:35.837Z,16.67
2022-11-20T03:00:03.525Z,16.37
2022-11-20T03:02:33.648Z,16.77
2022-11-20T03:05:00.364Z,17.42
2022-11-20T03:07:27.201Z,17.20
2022-11-20T03:09:53.873Z,16.17
2022-11-20T03:12:20.687Z,16.00
2022-11-20T03:14:52.638Z,17.73
2022-11-20T03:17:19.859Z,16.52
2022-11-20T03:19:46.592Z,16.73
2022-11-20T03:22:13.320Z,17.02
2022-11-20T03:24:39.949Z,15.73
2022-11-20T03:27:06.672Z,16.38
2022-11-20T03:29:33.373Z,16.52
2022-11-20T03:32:00.069Z,17.45
2022-11-20T03:34:26.688Z,16.35
2022-11-20T03:36:53.328Z,16.10
2022-11-20T03:39:20.261Z,17.17
2022-11-20T03:41:47.361Z,16.60
2022-11-20T03:44:14.058Z,16.13
2022-11-20T03:46:40.826Z,15.63
2022-11-20T03:49:07.504Z,17.45
2022-11-20T03:51:36.738Z,15.50
2022-11-20T03:54:06.138Z,15.60
2022-11-20T03:56:35.480Z,15.80
2022-11-20T03:59:02.414Z,17.02
2022-11-20T04:01:32.024Z,16.08
2022-11-20T04:03:59.132Z,17.13
2022-11-20T04:06:31.400Z,16.67
2022-11-20T04:08:59.355Z,14.93
2022-11-20T04:11:32.184Z,16.35
2022-11-20T04:14:01.555Z,15.77
2022-11-20T04:16:31.094Z,16.58
2022-11-20T04:18:59.982Z,15.63
2022-11-20T04:21:27.382Z,15.13
2022-11-20T04:23:55.005Z,15.75
2022-11-20T04:26:23.681Z,17.15
2022-11-20T04:28:50.808Z,15.32
2022-11-20T04:31:20.086Z,15.68
2022-11-20T04:33:47.288Z,15.50
2022-11-20T04:36:19.482Z,16.52
2022-11-20T04:38:46.509Z,14.70
2022-11-20T04:41:18.354Z,14.40
2022-11-20T04:43:49.876Z,15.55
2022-11-20T04:46:21.014Z,15.10
2022-11-20T04:48:48.315Z,15.38
2022-11-20T04:51:15.006Z,15.65
2022-11-20T04:53:42.482Z,15.68
2022-11-20T04:56:11.163Z,14.73
2022-11-20T04:58:38.411Z,14.57
2022-11-20T05:01:07.514Z,14.30
2022-11-20T05:03:37.395Z,15.68
2022-11-20T05:06:09.011Z,16.23
2022-11-20T05:08:35.799Z,14.82
2022-11-20T05:11:11.785Z,14.88
2022-11-20T05:13:38.496Z,15.32
2022-11-20T05:16:14.357Z,16.00
2022-11-20T05:18:42.173Z,15.15
2022-11-20T05:21:10.615Z,16.52
2022-11-20T05:23:37.723Z,15.57
2022-11-20T05:26:05.208Z,15.50
2022-11-20T05:28:33.205Z,14.93
2022-11-20T05:31:12.299Z,15.45
2022-11-20T05:33:41.440Z,14.25
2022-11-20T05:36:09.102Z,15.77
2022-11-20T05:38:35.881Z,15.18
2022-11-20T05:41:10.957Z,15.80
2022-11-20T05:43:39.220Z,15.55
2022-11-20T05:46:07.269Z,15.73
2022-11-20T05:48:34.918Z,14.98
2022-11-20T05:51:03.706Z,14.48
2022-11-20T05:53:31.094Z,16.42
2022-11-20T05:56:06.273Z,15.63
2022-11-20T05:58:34.172Z,15.45
2022-11-20T06:01:06.567Z,16.80
2022-11-20T06:03:33.507Z,15.73
2022-11-20T06:06:01.364Z,19.17
2022-11-20T06:08:30.331Z,17.40
2022-11-20T06:10:57.408Z,16.88
2022-11-20T06:13:24.686Z,15.30
2022-11-20T06:15:54.735Z,15.13
2022-11-20T06:18:21.695Z,17.80
2022-11-20T06:20:48.358Z,15.80
2022-11-20T06:23:15.108Z,14.53
2022-11-20T06:25:42.983Z,15.67
2022-11-20T06:28:10.014Z,15.30
2022-11-20T06:30:36.829Z,15.47
2022-11-20T06:33:03.533Z,15.60
2022-11-20T06:35:30.191Z,18.60
2022-11-20T06:37:57.325Z,16.17
2022-11-20T06:40:24.009Z,21.10
2022-11-20T06:42:50.634Z,16.27
2022-11-20T06:45:17.410Z,15.73
2022-11-20T06:47:44.008Z,16.50
2022-11-20T06:50:10.658Z,15.77
2022-11-20T06:52:40.904Z,16.27
2022-11-20T06:55:10.320Z,17.17
2022-11-20T06:57:36.942Z,16.60
2022-11-20T07:00:04.081Z,16.63
2022-11-20T07:02:30.788Z,16.33
2022-11-20T07:04:57.573Z,19.17
2022-11-20T07:07:24.360Z,19.03
2022-11-20T07:09:51.272Z,16.73
2022-11-20T07:12:17.992Z,16.52
2022-11-20T07:14:44.696Z,14.80
2022-11-20T07:17:12.193Z,17.00
2022-11-20T07:19:38.873Z,16.75
2022-11-20T07:22:05.579Z,15.65
2022-11-20T07:24:32.265Z,14.85
2022-11-20T07:26:58.927Z,15.10
2022-11-20T07:29:25.580Z,15.13
2022-11-20T07:31:52.505Z,15.13
2022-11-20T07:34:19.142Z,15.30
2022-11-20T07:36:45.844Z,15.20
2022-11-20T07:39:12.466Z,15.50
2022-11-20T07:41:39.140Z,15.37
2022-11-20T07:44:05.936Z,14.73
2022-11-20T07:46:32.747Z,14.82
2022-11-20T07:48:59.448Z,15.73
2022-11-20T07:51:26.936Z,14.60
2022-11-20T07:53:53.934Z,14.50
2022-11-20T07:56:20.657Z,15.73
2022-11-20T07:58:47.347Z,14.75
2022-11-20T08:01:14.148Z,15.03
2022-11-20T08:03:41.132Z,20.23
2022-11-20T08:06:08.590Z,15.13
2022-11-20T08:08:38.857Z,15.38
2022-11-20T08:11:27.466Z,15.07
2022-11-20T08:14:12.952Z,15.27
2022-11-20T08:16:58.646Z,15.35
2022-11-20T08:19:25.417Z,15.95
2022-11-20T08:21:52.081Z,15.80
2022-11-20T08:24:18.953Z,15.45
2022-11-20T08:26:45.585Z,15.75
2022-11-20T08:29:12.337Z,15.40
2022-11-20T08:31:39.051Z,15.27
2022-11-20T08:34:09.147Z,15.52
2022-11-20T08:36:38.027Z,16.25
2022-11-20T08:39:05.050Z,15.23
2022-11-20T08:41:34.015Z,16.43
2022-11-20T08:44:03.289Z,15.55
2022-11-20T08:46:44.380Z,16.53
2022-11-20T08:49:12.872Z,15.30
2022-11-20T08:51:39.920Z,16.02
2022-11-20T08:54:06.836Z,19.80
2022-11-20T08:56:35.078Z,20.77
2022-11-20T08:59:20.615Z,20.70
2022-11-20T09:01:48.614Z,19.70
2022-11-20T09:04:15.462Z,17.60
2022-11-20T09:06:42.174Z,17.60
2022-11-20T09:09:08.839Z,25.52
2022-11-20T09:11:36.993Z,23.70
2022-11-20T09:14:03.870Z,19.60
2022-11-20T09:16:30.571Z,18.67
2022-11-20T09:19:20.693Z,17.63
2022-11-20T09:21:43.912Z,20.80
2022-11-20T09:24:10.657Z,20.90
2022-11-20T09:26:37.339Z,19.38
2022-11-20T09:29:04.098Z,17.00
2022-11-20T09:31:30.833Z,20.23
2022-11-20T09:33:57.515Z,16.63
2022-11-20T09:36:24.178Z,16.08
2022-11-20T09:38:51.027Z,17.67
2022-11-20T09:41:46.854Z,17.75
2022-11-20T09:44:31.931Z,18.20
2022-11-20T09:47:07.287Z,23.48
2022-11-20T09:50:11.178Z,16.85
2022-11-20T09:52:54.618Z,16.98
2022-11-20T09:55:22.374Z,16.80
2022-11-20T09:57:53.131Z,19.05
2022-11-20T10:00:22.191Z,16.40
2022-11-20T10:03:05.005Z,16.98
2022-11-20T10:05:57.189Z,16.88
2022-11-20T10:08:26.089Z,16.20
2022-11-20T10:11:08.043Z,15.75
2022-11-20T10:13:47.405Z,18.23
2022-11-20T10:16:41.233Z,16.70
2022-11-20T10:19:11.225Z,16.25
2022-11-20T10:22:02.679Z,15.93
2022-11-20T10:24:32.048Z,15.02
2022-11-20T10:27:23.710Z,16.10
2022-11-20T10:30:09.037Z,17.27
2022-11-20T10:32:44.394Z,16.20
2022-11-20T10:35:43.358Z,16.63
2022-11-20T10:38:27.037Z,15.57
2022-11-20T10:41:21.359Z,14.48
2022-11-20T10:43:51.620Z,16.67
2022-11-20T10:46:23.094Z,16.33
2022-11-20T10:48:50.557Z,15.40
2022-11-20T10:51:41.019Z,15.63
2022-11-20T10:54:53.077Z,15.40
2022-11-20T10:57:19.711Z,15.02
2022-11-20T11:00:14.281Z,15.13
2022-11-20T11:02:46.456Z,32.67
2022-11-20T11:05:44.021Z,16.35
2022-11-20T11:08:16.088Z,16.20
2022-11-20T11:10:51.626Z,15.02
2022-11-20T11:13:26.527Z,15.93
2022-11-20T11:15:54.021Z,14.93
2022-11-20T11:18:34.999Z,14.90
2022-11-20T11:21:05.131Z,14.32
2022-11-20T11:23:40.528Z,15.05
2022-11-20T11:26:20.606Z,28.00
2022-11-20T11:29:02.173Z,23.30
2022-11-20T11:31:34.559Z,14.10
2022-11-20T11:34:17.107Z,13.95
2022-11-20T11:36:55.260Z,15.43
2022-11-20T11:39:22.749Z,14.13
2022-11-20T11:41:50.180Z,14.30
2022-11-20T11:44:37.529Z,14.52
2022-11-20T11:47:06.071Z,13.18
2022-11-20T11:49:32.744Z,14.65
2022-11-20T11:52:08.793Z,17.63
2022-11-20T11:54:49.432Z,14.48
2022-11-20T11:57:43.085Z,13.68
2022-11-20T12:00:23.337Z,14.93
2022-11-20T12:03:01.501Z,14.18
2022-11-20T12:05:35.676Z,14.05
2022-11-20T12:10:59.198Z,14.77
2022-11-20T12:13:32.022Z,32.38
2022-11-20T12:15:59.507Z,16.20
2022-11-20T12:18:26.254Z,14.95
2022-11-20T12:21:17.802Z,15.05
2022-11-20T12:24:05.829Z,14.60
2022-11-20T12:26:53.738Z,15.07
2022-11-20T12:29:41.937Z,18.70
2022-11-20T12:32:11.397Z,17.17
2022-11-20T12:34:44.735Z,14.70
2022-11-20T12:37:34.096Z,15.00
2022-11-20T12:40:27.725Z,16.05
2022-11-20T12:43:25.816Z,16.10
2022-11-20T12:46:00.656Z,15.38
2022-11-20T12:48:46.677Z,15.60
2022-11-20T12:51:27.984Z,15.52
2022-11-20T12:53:57.407Z,15.48
2022-11-20T12:56:39.596Z,16.15
2022-11-20T12:59:09.266Z,15.55
2022-11-20T13:01:57.029Z,16.25
2022-11-20T13:04:40.168Z,16.55
2022-11-20T13:07:11.038Z,15.43
2022-11-20T13:09:48.159Z,15.73
2022-11-20T13:12:39.578Z,16.63
2022-11-20T13:15:29.286Z,17.17
2022-11-20T13:18:00.129Z,16.27
2022-11-20T13:20:27.774Z,15.40
2022-11-20T13:22:56.248Z,13.82
2022-11-20T13:25:28.637Z,14.02
2022-11-20T13:27:57.181Z,14.68
2022-11-20T13:30:28.086Z,13.60
2022-11-20T13:33:26.756Z,14.85
2022-11-20T13:36:05.425Z,13.43
2022-11-20T13:38:50.539Z,13.52
2022-11-20T13:41:38.861Z,13.60
2022-11-20T13:44:36.467Z,13.88
2022-11-20T13:47:03.276Z,12.55
2022-11-20T13:49:43.807Z,13.13
2022-11-20T13:52:30.600Z,13.15
2022-11-20T13:55:13.083Z,12.63
2022-11-20T13:58:19.109Z,12.40
2022-11-20T14:00:59.019Z,12.95
2022-11-20T14:03:59.046Z,11.43
2022-11-20T14:06:32.556Z,11.40
2022-11-20T14:09:00.616Z,11.68
2022-11-20T14:11:31.826Z,11.18
2022-11-20T14:14:14.253Z,11.60
2022-11-20T14:16:41.023Z,11.48
2022-11-20T14:19:25.917Z,10.55
2022-11-20T14:22:10.844Z,11.60
2022-11-20T14:24:37.656Z,10.27
2022-11-20T14:27:07.068Z,10.90
2022-11-20T14:29:38.476Z,10.18
2022-11-20T14:32:05.854Z,10.57
2022-11-20T14:34:38.045Z,10.30
2022-11-20T14:37:16.380Z,10.55
2022-11-20T14:39:49.654Z,11.18
2022-11-20T14:42:19.068Z,11.68
2022-11-20T14:44:46.381Z,11.18
2022-11-20T14:47:16.280Z,10.82
2022-11-20T14:49:43.443Z,10.95
2022-11-20T14:52:18.264Z,11.00
2022-11-20T14:54:50.592Z,11.27
2022-11-20T14:57:29.073Z,12.30
2022-11-20T15:00:25.066Z,11.65
2022-11-20T15:02:52.854Z,11.73
2022-11-20T15:05:26.158Z,11.60
2022-11-20T15:08:10.259Z,12.90
2022-11-20T15:10:38.048Z,12.30
2022-11-20T15:13:14.384Z,12.07
2022-11-20T15:15:52.452Z,16.80
2022-11-20T15:18:22.461Z,13.18
2022-11-20T15:20:49.581Z,12.55
2022-11-20T15:23:19.435Z,12.52
2022-11-20T15:25:46.787Z,12.57
2022-11-20T15:28:22.303Z,12.25
2022-11-20T15:30:50.820Z,13.07
2022-11-20T15:33:18.275Z,12.23
2022-11-20T15:35:45.147Z,11.48
2022-11-20T15:38:11.919Z,12.05
2022-11-20T15:40:38.634Z,12.60
2022-11-20T15:43:11.625Z,12.32
2022-11-20T15:45:40.145Z,9.95
2022-11-20T15:48:12.369Z,11.80
2022-11-20T15:50:51.776Z,11.65
2022-11-20T15:53:18.601Z,11.60
2022-11-20T15:55:45.375Z,11.85
2022-11-20T15:58:12.027Z,10.77
2022-11-20T16:00:38.996Z,11.70
2022-11-20T16:03:05.689Z,12.40
2022-11-20T16:05:32.822Z,11.88
2022-11-20T16:07:59.587Z,10.70
2022-11-20T16:10:26.286Z,11.95
2022-11-20T16:13:11.380Z,11.98
2022-11-20T16:15:47.179Z,10.90
2022-11-20T16:18:21.881Z,10.80
2022-11-20T16:20:51.501Z,11.43
2022-11-20T16:23:18.864Z,10.98
2022-11-20T16:25:46.007Z,10.77
2022-11-20T16:28:18.472Z,10.80
2022-11-20T16:30:45.943Z,13.02
2022-11-20T16:33:18.240Z,10.68
2022-11-20T16:35:44.938Z,11.57
2022-11-20T16:38:11.707Z,11.23
2022-11-20T16:40:38.370Z,10.25
2022-11-20T16:43:14.561Z,11.63
2022-11-20T16:45:42.911Z,12.13
2022-11-20T16:48:13.154Z,12.77
2022-11-20T16:50:50.207Z,13.38
2022-11-20T16:53:18.228Z,13.55
2022-11-20T16:55:45.321Z,15.32
2022-11-20T16:58:12.508Z,13.70
2022-11-20T17:00:39.981Z,11.68
2022-11-20T17:03:07.304Z,15.27
2022-11-20T17:05:34.918Z,13.82
2022-11-20T17:08:02.072Z,13.35
2022-11-20T17:10:29.203Z,12.15
2022-11-20T17:12:55.925Z,11.07
2022-11-20T17:15:22.621Z,11.35
2022-11-20T17:17:49.297Z,11.80
2022-11-20T17:20:17.437Z,11.02
2022-11-20T17:22:44.109Z,12.25
2022-11-20T17:25:10.825Z,11.52
2022-11-20T17:27:37.459Z,11.43
2022-11-20T17:30:04.444Z,11.43
2022-11-20T17:32:31.068Z,11.88
2022-11-20T17:34:59.232Z,11.23
2022-11-20T17:37:26.013Z,11.48
2022-11-20T17:39:52.736Z,10.73
2022-11-20T17:42:29.455Z,11.73
2022-11-20T17:44:58.519Z,10.57
2022-11-20T17:47:25.928Z,10.98
2022-11-20T17:49:53.486Z,10.63
2022-11-20T17:52:20.454Z,11.38
2022-11-20T17:54:47.242Z,10.73
2022-11-20T17:57:32.618Z,10.23
2022-11-20T17:59:59.268Z,10.90
2022-11-20T18:02:25.999Z,10.25
2022-11-20T18:04:52.667Z,10.30
2022-11-20T18:07:19.387Z,9.90
2022-11-20T18:09:46.061Z,10.30
2022-11-20T18:12:12.710Z,10.95
2022-11-20T18:14:39.476Z,10.68
2022-11-20T18:17:13.622Z,10.32
2022-11-20T18:22:28.456Z,9.10
2022-11-20T18:24:55.132Z,9.13
2022-11-20T18:27:23.072Z,10.52
2022-11-20T18:29:51.921Z,10.27
2022-11-20T18:32:20.857Z,9.77
2022-11-20T18:34:47.595Z,9.13
2022-11-20T18:37:15.331Z,8.77
2022-11-20T18:39:42.620Z,8.88
2022-11-20T18:42:34.903Z,9.43
2022-11-20T18:45:04.153Z,8.80
2022-11-20T18:47:34.068Z,9.02
2022-11-20T18:50:01.886Z,9.55
2022-11-20T18:52:28.542Z,14.85
2022-11-20T18:54:55.911Z,23.35
2022-11-20T18:57:25.558Z,12.13
2022-11-20T18:59:53.868Z,11.60
2022-11-20T19:02:21.500Z,15.55
2022-11-20T19:04:48.936Z,11.30
2022-11-20T19:07:16.323Z,9.20
2022-11-20T19:09:45.412Z,9.93
2022-11-20T19:12:13.119Z,9.57
2022-11-20T19:14:40.019Z,9.57
2022-11-20T19:17:07.430Z,9.65
2022-11-20T19:19:34.836Z,9.82
2022-11-20T19:22:01.554Z,9.88
2022-11-20T19:24:28.364Z,10.27
2022-11-20T19:26:56.142Z,9.32
2022-11-20T19:29:24.531Z,9.85
2022-11-20T19:31:51.708Z,10.20
2022-11-20T19:34:18.607Z,10.45
2022-11-20T19:36:45.336Z,10.82
2022-11-20T19:39:12.504Z,10.50
2022-11-20T19:41:41.198Z,11.00
2022-11-20T19:44:17.603Z,12.00
2022-11-20T19:46:44.825Z,11.55
2022-11-20T19:49:13.855Z,11.80
2022-11-20T19:51:45.945Z,14.63
2022-11-20T19:54:13.128Z,14.20
2022-11-20T19:56:39.820Z,13.07
2022-11-20T19:59:06.553Z,11.70
2022-11-20T20:01:33.359Z,11.13
2022-11-20T20:04:05.313Z,11.73
2022-11-20T20:06:34.340Z,11.87
2022-11-20T20:09:06.438Z,11.53
2022-11-20T20:11:34.815Z,12.80
2022-11-20T20:14:06.844Z,13.23
2022-11-20T20:16:34.304Z,13.40
2022-11-20T20:19:02.714Z,12.13
2022-11-20T20:21:30.727Z,12.85
2022-11-20T20:23:58.988Z,13.85
2022-11-20T20:26:27.472Z,13.43
2022-11-20T20:28:54.399Z,13.67
2022-11-20T20:31:23.875Z,13.30
2022-11-20T20:33:50.912Z,13.43
2022-11-20T20:36:19.201Z,14.03
2022-11-20T20:38:46.462Z,14.57
2022-11-20T20:41:14.238Z,14.47
2022-11-20T20:43:59.369Z,14.10
2022-11-20T20:46:26.273Z,14.70
2022-11-20T20:48:54.961Z,14.70
2022-11-20T20:51:22.729Z,14.40
2022-11-20T20:53:50.239Z,14.70
2022-11-20T20:56:17.787Z,14.95
2022-11-20T20:58:44.482Z,14.70
2022-11-20T21:01:14.069Z,15.50
2022-11-20T21:03:40.752Z,14.20
2022-11-20T21:06:09.737Z,15.80
2022-11-20T21:08:40.163Z,15.77
2022-11-20T21:11:08.819Z,14.27
2022-11-20T21:13:36.856Z,15.50
2022-11-20T21:16:03.993Z,14.90
2022-11-20T21:18:33.150Z,15.03
2022-11-20T21:21:18.729Z,15.50
2022-11-20T21:23:47.262Z,15.57
2022-11-20T21:26:15.735Z,14.73
2022-11-20T21:28:42.615Z,16.17
2022-11-20T21:31:24.884Z,16.70
2022-11-20T21:33:53.444Z,16.53
2022-11-20T21:36:22.503Z,17.67
2022-11-20T21:38:50.544Z,15.50
2022-11-20T21:41:17.659Z,16.47
2022-11-20T21:43:44.384Z,16.30
2022-11-20T21:46:13.463Z,15.73
2022-11-20T21:48:42.078Z,16.13
2022-11-20T21:51:14.527Z,16.67
2022-11-20T21:53:41.597Z,17.33
2022-11-20T21:56:09.883Z,16.40
2022-11-20T21:58:37.724Z,16.73
2022-11-20T22:01:14.537Z,15.60
2022-11-20T22:03:42.048Z,15.70
2022-11-20T22:06:09.940Z,15.83
2022-11-20T22:08:38.100Z,16.97
2022-11-20T22:11:13.138Z,16.00
2022-11-20T22:13:59.333Z,15.70
2022-11-20T22:16:26.381Z,16.50
2022-11-20T22:18:55.527Z,15.97
2022-11-20T22:21:24.954Z,17.00
2022-11-20T22:23:52.343Z,16.27
2022-11-20T22:26:21.397Z,15.73
2022-11-20T22:28:49.796Z,17.13
2022-11-20T22:31:17.746Z,16.07
2022-11-20T22:33:44.506Z,15.77
2022-11-20T22:36:13.997Z,17.03
2022-11-20T22:38:41.316Z,16.77
2022-11-20T22:41:11.180Z,16.30
2022-11-20T22:43:38.566Z,16.90
2022-11-20T22:46:12.937Z,15.87
2022-11-20T22:48:42.003Z,17.03
2022-11-20T22:51:14.666Z,16.60
2022-11-20T22:53:42.600Z,16.87
2022-11-20T22:56:12.448Z,16.73
2022-11-20T22:58:40.824Z,15.07
2022-11-20T23:01:16.016Z,15.30
2022-11-20T23:03:48.062Z,14.93
2022-11-20T23:06:16.868Z,16.47
2022-11-20T23:08:43.518Z,15.50
2022-11-20T23:11:13.175Z,16.67
2022-11-20T23:13:40.811Z,15.70
2022-11-20T23:16:16.355Z,16.00
2022-11-20T23:18:43.990Z,17.07
2022-11-20T23:21:13.789Z,15.93
2022-11-20T23:23:41.184Z,15.17
2022-11-20T23:26:12.874Z,14.57
2022-11-20T23:28:40.547Z,16.27
2022-11-20T23:31:08.140Z,16.17
2022-11-20T23:33:43.521Z,16.20
2022-11-20T23:36:11.038Z,15.93
2022-11-20T23:38:38.294Z,16.83
2022-11-20T23:41:05.519Z,15.33
2022-11-20T23:43:32.558Z,16.33
2022-11-20T23:46:00.797Z,16.03
2022-11-20T23:48:30.094Z,16.67
2022-11-20T23:50:57.260Z,16.47
2022-11-20T23:53:24.821Z,15.80
2022-11-20T23:55:53.725Z,15.13
2022-11-20T23:58:21.408Z,16.40
